Terminal Aerodrome Forecast
Issued by NWS Binghamton, NY

Home | Current Version | Previous Version | Text Only | Print | Product List | Glossary On
Versions: 1 2 3 4 5 6 7 8 9 10 11 12 13 14 15 16 17 18 19 20 21 22 23 24 25 26
000
FTUS41 KBGM 020919 AAB
TAFBGM
TAF AMD
KBGM 020919Z 0209/0306 26003KT 4SM BR SCT015
      TEMPO 0209/0212 1SM BR OVC015
     FM021400 32005KT P6SM BKN060
     FM022100 32007KT P6SM SCT060
     FM022300 34005KT P6SM BKN250=

USA.gov is the U.S. government's official web portal to all federal, state and local government web resources and services.